createdAt,value
2019-03-10T00:00:21.414Z,7.7
2019-03-10T00:05:17.986Z,7.1
2019-03-10T00:10:14.541Z,6.8
2019-03-10T00:15:11.132Z,5.4
2019-03-10T00:20:07.775Z,6.7
2019-03-10T00:25:04.580Z,6.8
2019-03-10T00:30:01.071Z,6.7
2019-03-10T00:34:57.036Z,6.6
2019-03-10T00:39:53.645Z,6.1
2019-03-10T00:44:50.447Z,5.3
2019-03-10T00:49:47.206Z,5.9
2019-03-10T00:54:43.605Z,5.7
2019-03-10T00:59:39.650Z,5.4
2019-03-10T01:04:36.139Z,5.3
2019-03-10T01:09:32.615Z,5
2019-03-10T01:14:29.196Z,4.8
2019-03-10T01:19:26.001Z,4.7
2019-03-10T01:24:22.903Z,4
2019-03-10T01:29:19.169Z,4.7
2019-03-10T01:34:15.795Z,4.7
2019-03-10T01:39:12.438Z,4.8
2019-03-10T01:44:09.408Z,3.9
2019-03-10T01:49:06.342Z,5.2
2019-03-10T01:54:02.976Z,5.1
2019-03-10T01:58:59.575Z,4.7
2019-03-10T02:03:55.914Z,3.6
2019-03-10T02:08:52.218Z,4.6
2019-03-10T02:13:48.993Z,5.3
2019-03-10T02:18:45.906Z,5
2019-03-10T02:23:42.535Z,5.6
2019-03-10T02:28:38.814Z,5.2
2019-03-10T02:33:35.014Z,4.8
2019-03-10T02:38:30.896Z,3.7
2019-03-10T02:43:27.640Z,3.8
2019-03-10T02:48:24.561Z,4.3
2019-03-10T02:53:21.178Z,4.3
2019-03-10T02:58:18.350Z,5.2
2019-03-10T03:03:15.063Z,5.2
2019-03-10T03:08:12.302Z,5
2019-03-10T03:13:08.421Z,4.6
2019-03-10T03:18:05.074Z,4.6
2019-03-10T03:23:01.673Z,4.3
2019-03-10T03:27:58.448Z,4.2
2019-03-10T03:32:55.047Z,4
2019-03-10T03:37:51.853Z,3.7
2019-03-10T03:42:48.502Z,4.1
2019-03-10T03:47:44.715Z,3
2019-03-10T03:52:41.200Z,4.1
2019-03-10T03:57:37.878Z,4
2019-03-10T04:02:34.531Z,3.8
2019-03-10T04:07:31.244Z,3.9
2019-03-10T04:12:27.960Z,4
2019-03-10T04:17:24.937Z,4.3
2019-03-10T04:22:21.762Z,4.1
2019-03-10T04:27:18.474Z,3.9
2019-03-10T04:32:15.076Z,3.6
2019-03-10T04:37:11.856Z,3.8
2019-03-10T04:42:08.748Z,4
2019-03-10T04:47:05.532Z,4.1
2019-03-10T04:52:02.237Z,4.1
2019-03-10T04:56:59.197Z,4.2
2019-03-10T05:01:56.167Z,4.5
2019-03-10T05:06:53.300Z,4.9
2019-03-10T05:11:50.616Z,5.2
2019-03-10T05:16:47.620Z,4.2
2019-03-10T05:21:44.355Z,5.7
2019-03-10T05:26:40.761Z,5.2
2019-03-10T05:31:37.288Z,4.9
2019-03-10T05:36:34.056Z,5.1
2019-03-10T05:41:30.974Z,5.3
2019-03-10T05:46:27.995Z,5.8
2019-03-10T05:51:24.275Z,5.2
2019-03-10T05:56:25.411Z,10.1
2019-03-10T06:01:23.737Z,9.9
2019-03-10T06:06:22.289Z,12.9
2019-03-10T06:11:18.134Z,9.1
2019-03-10T06:16:12.106Z,8.8
2019-03-10T06:21:07.084Z,7.5
2019-03-10T06:26:05.522Z,7.1
2019-03-10T06:31:03.661Z,9.1
2019-03-10T06:36:00.086Z,7.7
2019-03-10T06:40:57.338Z,8.4
2019-03-10T06:45:54.460Z,8.6
2019-03-10T06:50:53.942Z,10.4
2019-03-10T06:55:51.676Z,12
2019-03-10T07:00:50.974Z,13.5
2019-03-10T07:05:48.701Z,11.9
2019-03-10T07:10:43.771Z,11.1
2019-03-10T07:15:40.847Z,11.3
2019-03-10T07:20:37.339Z,10
2019-03-10T07:25:34.631Z,11.2
2019-03-10T07:30:32.956Z,11.8
2019-03-10T07:35:31.169Z,12.2
2019-03-10T07:40:28.880Z,12.5
2019-03-10T07:45:26.175Z,12.6
2019-03-10T07:50:24.133Z,13
2019-03-10T07:55:22.945Z,13.4
2019-03-10T08:00:20.156Z,13
2019-03-10T08:05:17.944Z,13.5
2019-03-10T08:10:15.744Z,13.5
2019-03-10T08:15:13.166Z,14.4
2019-03-10T08:20:13.437Z,13.9
2019-03-10T08:25:10.003Z,14.1
2019-03-10T08:30:06.777Z,13.9
2019-03-10T08:35:06.177Z,17.7
2019-03-10T08:40:03.537Z,17.5
2019-03-10T08:44:58.704Z,16.5
2019-03-10T08:49:55.486Z,16.2
2019-03-10T08:54:53.059Z,16.7
2019-03-10T08:59:49.087Z,16
2019-03-10T09:04:45.831Z,14.8
2019-03-10T09:09:45.914Z,16.5
2019-03-10T09:14:44.379Z,18.1
2019-03-10T09:19:42.439Z,17.1
2019-03-10T09:24:39.480Z,17.6
2019-03-10T09:29:35.865Z,16.4
2019-03-10T09:34:32.774Z,15.8
2019-03-10T09:39:33.382Z,18.1
2019-03-10T09:44:33.610Z,17.4
2019-03-10T09:49:30.205Z,18
2019-03-10T09:54:27.392Z,17.9
2019-03-10T09:59:25.490Z,18.8
2019-03-10T10:04:23.624Z,19
2019-03-10T10:09:21.908Z,18.5
2019-03-10T10:14:20.246Z,19.2
2019-03-10T10:19:17.745Z,19.3
2019-03-10T10:24:14.984Z,19.7
2019-03-10T10:29:09.803Z,19.3
2019-03-10T10:34:08.108Z,20.2
2019-03-10T10:39:04.478Z,20
2019-03-10T10:44:02.871Z,18.9
2019-03-10T10:48:59.102Z,17.4
2019-03-10T10:53:56.041Z,16.7
2019-03-10T10:58:54.745Z,18.4
2019-03-10T11:03:53.030Z,18.4
2019-03-10T11:08:50.174Z,16.4
2019-03-10T11:13:49.025Z,19.8
2019-03-10T11:18:46.678Z,17.9
2019-03-10T11:23:44.568Z,19.7
2019-03-10T11:28:42.242Z,19.6
2019-03-10T11:33:40.080Z,19.5
2019-03-10T11:38:37.339Z,19.6
2019-03-10T11:43:34.462Z,19
2019-03-10T11:48:33.139Z,20.3
2019-03-10T11:53:29.177Z,20.6
2019-03-10T11:58:26.745Z,19.5
2019-03-10T12:03:23.423Z,19.5
2019-03-10T12:08:21.099Z,20
2019-03-10T12:13:17.995Z,20
2019-03-10T12:18:15.083Z,19.5
2019-03-10T12:23:11.788Z,19.6
2019-03-10T12:28:10.532Z,19.9
2019-03-10T12:33:07.828Z,20.4
2019-03-10T12:38:04.736Z,20.1
2019-03-10T12:43:01.829Z,20.4
2019-03-10T12:47:58.978Z,19.9
2019-03-10T12:52:56.117Z,20
2019-03-10T12:57:53.684Z,19.8
2019-03-10T13:02:50.815Z,19.3
2019-03-10T13:07:48.364Z,19.5
2019-03-10T13:12:44.823Z,18.9
2019-03-10T13:17:42.889Z,19.1
2019-03-10T13:22:39.430Z,19.3
2019-03-10T13:27:35.689Z,18.7
2019-03-10T13:32:33.497Z,19.3
2019-03-10T13:37:30.038Z,18.9
2019-03-10T13:42:27.383Z,19.2
2019-03-10T13:47:24.373Z,19.1
2019-03-10T13:52:21.279Z,18.9
2019-03-10T13:57:18.026Z,19
2019-03-10T14:02:15.039Z,19
2019-03-10T14:07:11.952Z,19
2019-03-10T14:12:08.887Z,19.1
2019-03-10T14:17:05.752Z,18.7
2019-03-10T14:22:02.803Z,18.8
2019-03-10T14:26:59.495Z,18.5
2019-03-10T14:31:56.549Z,18.5
2019-03-10T14:36:53.736Z,18.7
2019-03-10T14:41:51.074Z,18.4
2019-03-10T14:46:48.179Z,18.4
2019-03-10T14:51:45.447Z,18.4
2019-03-10T14:56:42.422Z,18.2
2019-03-10T15:01:39.305Z,18.1
2019-03-10T15:06:38.369Z,18.1
2019-03-10T15:11:34.979Z,17.9
2019-03-10T15:16:31.675Z,17.3
2019-03-10T15:21:28.514Z,17.4
2019-03-10T15:26:25.427Z,17.1
2019-03-10T15:31:22.280Z,16.7
2019-03-10T15:36:20.518Z,16.7
2019-03-10T15:41:17.253Z,16.5
2019-03-10T15:46:14.170Z,16.3
2019-03-10T15:51:11.110Z,16.2
2019-03-10T15:56:07.603Z,15.1
2019-03-10T16:01:04.644Z,15.7
2019-03-10T16:06:01.064Z,15.3
2019-03-10T16:10:58.202Z,15.1
2019-03-10T16:15:55.245Z,15.2
2019-03-10T16:20:52.201Z,14.7
2019-03-10T16:25:48.747Z,14.9
2019-03-10T16:30:45.670Z,14.9
2019-03-10T16:35:42.572Z,14.9
2019-03-10T16:40:39.701Z,14.8
2019-03-10T16:45:36.503Z,14.8
2019-03-10T16:50:33.502Z,14.1
2019-03-10T16:55:30.438Z,14.7
2019-03-10T17:00:27.292Z,14.8
2019-03-10T17:05:23.710Z,14.5
2019-03-10T17:10:20.894Z,15.1
2019-03-10T17:15:17.508Z,14.4
2019-03-10T17:20:14.687Z,15
2019-03-10T17:25:11.474Z,14.9
2019-03-10T17:30:08.764Z,14.6
2019-03-10T17:35:05.744Z,14.5
2019-03-10T17:40:02.714Z,14.1
2019-03-10T17:44:59.453Z,14.1
2019-03-10T17:49:56.459Z,14.4
2019-03-10T17:54:52.512Z,14.5
2019-03-10T17:59:49.369Z,14
2019-03-10T18:04:46.094Z,14.4
2019-03-10T18:09:43.519Z,14.3
2019-03-10T18:14:40.404Z,14.3
2019-03-10T18:19:37.272Z,14.3
2019-03-10T18:24:33.723Z,14.3
2019-03-10T18:29:30.702Z,13.9
2019-03-10T18:34:27.192Z,13.3
2019-03-10T18:39:23.856Z,13.3
2019-03-10T18:44:20.811Z,13.8
2019-03-10T18:49:19.908Z,13.1
2019-03-10T18:54:16.747Z,13.2
2019-03-10T18:59:13.645Z,13
2019-03-10T19:04:10.218Z,13.7
2019-03-10T19:09:07.008Z,12.9
2019-03-10T19:14:03.433Z,12.9
2019-03-10T19:19:00.547Z,13.1
2019-03-10T19:23:57.155Z,12.7
2019-03-10T19:28:54.357Z,13.5
2019-03-10T19:33:50.830Z,12.9
2019-03-10T19:38:47.670Z,12.5
2019-03-10T19:43:44.608Z,12.8
2019-03-10T19:48:41.477Z,12.6
2019-03-10T19:53:37.906Z,12.4
2019-03-10T19:58:34.677Z,12.5
2019-03-10T20:03:31.558Z,12.7
2019-03-10T20:08:28.337Z,12.1
2019-03-10T20:13:25.261Z,12.9
2019-03-10T20:18:22.119Z,12.3
2019-03-10T20:23:19.070Z,12.4
2019-03-10T20:28:15.934Z,12.4
2019-03-10T20:33:12.663Z,12.1
2019-03-10T20:38:09.733Z,12.1
2019-03-10T20:43:06.453Z,11.9
2019-03-10T20:48:03.494Z,11.8
2019-03-10T20:53:00.710Z,11.7
2019-03-10T20:57:57.377Z,11.6
2019-03-10T21:02:54.329Z,11.9
2019-03-10T21:07:51.129Z,11.2
2019-03-10T21:12:48.232Z,11.4
2019-03-10T21:17:44.577Z,11.3
2019-03-10T21:22:41.568Z,11.6
2019-03-10T21:27:38.664Z,11.4
2019-03-10T21:32:35.318Z,11.5
2019-03-10T21:37:32.421Z,11.5
2019-03-10T21:42:29.013Z,11.1
2019-03-10T21:47:26.332Z,11.4
2019-03-10T21:52:23.826Z,11.1
2019-03-10T21:57:20.726Z,11.7
2019-03-10T22:02:17.545Z,10.9
2019-03-10T22:07:14.130Z,11.6
2019-03-10T22:12:10.657Z,11.4
2019-03-10T22:17:07.678Z,11.7
2019-03-10T22:22:04.630Z,11.5
2019-03-10T22:27:00.877Z,10.8
2019-03-10T22:31:57.780Z,10.8
2019-03-10T22:36:54.746Z,10.5
2019-03-10T22:41:51.190Z,10.4
2019-03-10T22:46:48.141Z,10.4
2019-03-10T22:51:44.695Z,11.1
2019-03-10T22:56:41.118Z,10.3
2019-03-10T23:01:37.274Z,10
2019-03-10T23:06:33.700Z,10.1
2019-03-10T23:11:29.683Z,9.6
2019-03-10T23:16:26.009Z,10.2
2019-03-10T23:21:22.578Z,9.9
2019-03-10T23:26:18.099Z,8.7
2019-03-10T23:31:13.998Z,8.3
2019-03-10T23:36:10.404Z,8
2019-03-10T23:41:06.926Z,7.6
2019-03-10T23:46:03.963Z,8.7
2019-03-10T23:51:00.078Z,8.3
2019-03-10T23:55:56.654Z,8.3
